sensor_id;sensor_type;location;lat;lon;timestamp;pressure;altitude;pressure_sealevel;temperature;humidity
61880;BME280;47817;52.798;27.544;2022-11-03T00:04:35;1023.1;;;10.9;93.9
61880;BME280;47817;52.798;27.544;2022-11-03T00:08:57;1023.2;;;10.9;93.6
61880;BME280;47817;52.798;27.544;2022-11-03T00:13:57;1023.2;;;10.9;93.1
61880;BME280;47817;52.798;27.544;2022-11-03T00:19:21;1023.3;;;10.9;92.8
61880;BME280;47817;52.798;27.544;2022-11-03T00:24:23;1023.3;;;10.8;93
61880;BME280;47817;52.798;27.544;2022-11-03T00:29:05;1023.3;;;10.8;93.6
61880;BME280;47817;52.798;27.544;2022-11-03T00:33:57;1023.3;;;10.7;94.4
61880;BME280;47817;52.798;27.544;2022-11-03T00:39:07;1023.3;;;10.7;94.6
61880;BME280;47817;52.798;27.544;2022-11-03T00:44:23;1023.3;;;10.6;95.8
61880;BME280;47817;52.798;27.544;2022-11-03T00:49:23;1023.3;;;10.6;96
61880;BME280;47817;52.798;27.544;2022-11-03T00:54:35;1023.3;;;10.6;96.1
61880;BME280;47817;52.798;27.544;2022-11-03T00:59:05;1023.3;;;10.6;96.8
61880;BME280;47817;52.798;27.544;2022-11-03T01:04:07;1023.3;;;10.6;97.4
61880;BME280;47817;52.798;27.544;2022-11-03T01:09:09;1023.3;;;10.7;97.3
61880;BME280;47817;52.798;27.544;2022-11-03T01:14:13;1023.3;;;10.7;97.5
61880;BME280;47817;52.798;27.544;2022-11-03T01:19:33;1023.3;;;10.7;97.6
61880;BME280;47817;52.798;27.544;2022-11-03T01:24:35;1023.3;;;10.7;97.4
61880;BME280;47817;52.798;27.544;2022-11-03T01:29:13;1023.3;;;10.7;97.6
61880;BME280;47817;52.798;27.544;2022-11-03T01:34:25;1023.3;;;10.7;97.6
61880;BME280;47817;52.798;27.544;2022-11-03T01:39:25;1023.3;;;10.6;98
61880;BME280;47817;52.798;27.544;2022-11-03T01:44:33;1023.3;;;10.6;98.3
61880;BME280;47817;52.798;27.544;2022-11-03T01:49:36;1023.3;;;10.6;98.5
61880;BME280;47817;52.798;27.544;2022-11-03T01:54:02;1023.3;;;10.6;98.7
61880;BME280;47817;52.798;27.544;2022-11-03T01:59:25;1023.3;;;10.6;98.8
61880;BME280;47817;52.798;27.544;2022-11-03T02:04:13;1023.3;;;10.7;98.9
61880;BME280;47817;52.798;27.544;2022-11-03T02:09:35;1023.3;;;10.7;98.8
61880;BME280;47817;52.798;27.544;2022-11-03T02:14:10;1023.3;;;10.6;99
61880;BME280;47817;52.798;27.544;2022-11-03T02:18:51;1023.3;;;10.6;99.2
61880;BME280;47817;52.798;27.544;2022-11-03T02:23:52;1023.3;;;10.6;99.5
61880;BME280;47817;52.798;27.544;2022-11-03T02:29:23;1023.3;;;10.5;99.8
61880;BME280;47817;52.798;27.544;2022-11-03T02:34:37;1023.3;;;10.6;100
61880;BME280;47817;52.798;27.544;2022-11-03T02:39:36;1023.3;;;10.6;100
61880;BME280;47817;52.798;27.544;2022-11-03T02:44:01;1023.3;;;10.6;100
61880;BME280;47817;52.798;27.544;2022-11-03T02:49:23;1023.3;;;10.6;100
61880;BME280;47817;52.798;27.544;2022-11-03T02:54:25;1023.3;;;10.6;100
61880;BME280;47817;52.798;27.544;2022-11-03T02:59:10;1023.2;;;10.5;100
61880;BME280;47817;52.798;27.544;2022-11-03T03:04:36;1023.2;;;10.5;100
61880;BME280;47817;52.798;27.544;2022-11-03T03:08:59;1023.2;;;10.5;100
61880;BME280;47817;52.798;27.544;2022-11-03T03:14:26;1023.1;;;10.5;100
61880;BME280;47817;52.798;27.544;2022-11-03T03:19:14;1023.2;;;10.5;100
61880;BME280;47817;52.798;27.544;2022-11-03T03:24:35;1023.2;;;10.5;100
61880;BME280;47817;52.798;27.544;2022-11-03T03:28:52;1023.2;;;10.5;100
61880;BME280;47817;52.798;27.544;2022-11-03T03:33:51;1023.2;;;10.5;100
61880;BME280;47817;52.798;27.544;2022-11-03T03:39:13;1023.2;;;10.6;100
61880;BME280;47817;52.798;27.544;2022-11-03T03:44:23;1023.1;;;10.6;100
61880;BME280;47817;52.798;27.544;2022-11-03T03:49:35;1023.1;;;10.6;100
61880;BME280;47817;52.798;27.544;2022-11-03T03:54:35;1023.1;;;10.7;100
61880;BME280;47817;52.798;27.544;2022-11-03T03:59:01;1023.1;;;10.7;100
61880;BME280;47817;52.798;27.544;2022-11-03T04:04:23;1023.1;;;10.7;100
61880;BME280;47817;52.798;27.544;2022-11-03T04:08:53;1023.1;;;10.7;100
61880;BME280;47817;52.798;27.544;2022-11-03T04:14:07;1023.1;;;10.7;100
61880;BME280;47817;52.798;27.544;2022-11-03T04:19:37;1023.1;;;10.8;100
61880;BME280;47817;52.798;27.544;2022-11-03T04:24:11;1023.1;;;10.8;100
61880;BME280;47817;52.798;27.544;2022-11-03T04:29:35;1023.1;;;10.9;100
61880;BME280;47817;52.798;27.544;2022-11-03T04:34:11;1023.2;;;10.8;100
61880;BME280;47817;52.798;27.544;2022-11-03T04:39:37;1023.1;;;10.9;100
61880;BME280;47817;52.798;27.544;2022-11-03T04:44:10;1023.1;;;10.9;100
61880;BME280;47817;52.798;27.544;2022-11-03T04:49:01;1023.2;;;10.9;100
61880;BME280;47817;52.798;27.544;2022-11-03T04:54:02;1023.2;;;10.9;100
61880;BME280;47817;52.798;27.544;2022-11-03T04:59:23;1023.3;;;10.9;100
61880;BME280;47817;52.798;27.544;2022-11-03T05:04:01;1023.3;;;10.8;100
61880;BME280;47817;52.798;27.544;2022-11-03T05:09:37;1023.3;;;10.9;100
61880;BME280;47817;52.798;27.544;2022-11-03T05:13:51;1023.3;;;11;100
61880;BME280;47817;52.798;27.544;2022-11-03T05:19:37;1023.3;;;11.1;100
61880;BME280;47817;52.798;27.544;2022-11-03T05:24:27;1023.4;;;11.1;100
61880;BME280;47817;52.798;27.544;2022-11-03T05:29:25;1023.5;;;11.2;100
61880;BME280;47817;52.798;27.544;2022-11-03T05:34:27;1023.5;;;11.2;100
61880;BME280;47817;52.798;27.544;2022-11-03T05:38:52;1023.6;;;11.2;100
61880;BME280;47817;52.798;27.544;2022-11-03T05:44:39;1023.6;;;11.3;100
61880;BME280;47817;52.798;27.544;2022-11-03T05:49:13;1023.7;;;11.3;100
61880;BME280;47817;52.798;27.544;2022-11-03T05:54:28;1023.7;;;11.3;100
61880;BME280;47817;52.798;27.544;2022-11-03T05:59:11;1023.8;;;11.3;100
61880;BME280;47817;52.798;27.544;2022-11-03T06:04:03;1023.8;;;11.3;100
61880;BME280;47817;52.798;27.544;2022-11-03T06:09:11;1023.8;;;11.3;100
61880;BME280;47817;52.798;27.544;2022-11-03T06:14:23;1023.8;;;11.4;100
61880;BME280;47817;52.798;27.544;2022-11-03T06:19:01;1023.9;;;11.4;100
61880;BME280;47817;52.798;27.544;2022-11-03T06:24:37;1023.9;;;11.4;100
61880;BME280;47817;52.798;27.544;2022-11-03T06:29:01;1023.9;;;11.4;100
61880;BME280;47817;52.798;27.544;2022-11-03T06:34:37;1024;;;11.4;100
61880;BME280;47817;52.798;27.544;2022-11-03T06:39:21;1024;;;11.5;100
61880;BME280;47817;52.798;27.544;2022-11-03T06:44:25;1024;;;11.6;100
61880;BME280;47817;52.798;27.544;2022-11-03T06:48:54;1024.1;;;11.6;100
61880;BME280;47817;52.798;27.544;2022-11-03T06:53:52;1024.1;;;11.6;100
61880;BME280;47817;52.798;27.544;2022-11-03T06:59:27;1024.1;;;11.6;100
61880;BME280;47817;52.798;27.544;2022-11-03T07:04:15;1024.2;;;11.6;100
61880;BME280;47817;52.798;27.544;2022-11-03T07:09:15;1024.2;;;11.5;100
61880;BME280;47817;52.798;27.544;2022-11-03T07:13:51;1024.2;;;11.6;100
61880;BME280;47817;52.798;27.544;2022-11-03T07:19:02;1024.2;;;11.6;100
61880;BME280;47817;52.798;27.544;2022-11-03T07:23:51;1024.2;;;11.6;100
61880;BME280;47817;52.798;27.544;2022-11-03T07:29:26;1024.2;;;11.7;100
61880;BME280;47817;52.798;27.544;2022-11-03T07:34:14;1024.2;;;11.7;100
61880;BME280;47817;52.798;27.544;2022-11-03T07:39:35;1024.2;;;11.7;100
61880;BME280;47817;52.798;27.544;2022-11-03T07:44:01;1024.2;;;11.8;100
61880;BME280;47817;52.798;27.544;2022-11-03T07:49:35;1024.2;;;11.8;100
61880;BME280;47817;52.798;27.544;2022-11-03T07:54:27;1024.3;;;11.8;100
61880;BME280;47817;52.798;27.544;2022-11-03T07:59:25;1024.3;;;11.9;100
61880;BME280;47817;52.798;27.544;2022-11-03T08:04:23;1024.3;;;11.9;100
61880;BME280;47817;52.798;27.544;2022-11-03T08:09:01;1024.3;;;11.9;100
61880;BME280;47817;52.798;27.544;2022-11-03T08:14:37;1024.4;;;12;100
61880;BME280;47817;52.798;27.544;2022-11-03T08:19:13;1024.4;;;12;100
61880;BME280;47817;52.798;27.544;2022-11-03T08:24:25;1024.4;;;12;100
61880;BME280;47817;52.798;27.544;2022-11-03T08:28:57;1024.4;;;12;100
61880;BME280;47817;52.798;27.544;2022-11-03T08:34:13;1024.4;;;12;100
61880;BME280;47817;52.798;27.544;2022-11-03T08:39:13;1024.4;;;12.1;100
61880;BME280;47817;52.798;27.544;2022-11-03T08:44:23;1024.4;;;12.1;100
61880;BME280;47817;52.798;27.544;2022-11-03T08:49:11;1024.4;;;12.2;100
61880;BME280;47817;52.798;27.544;2022-11-03T08:54:37;1024.4;;;12.5;100
61880;BME280;47817;52.798;27.544;2022-11-03T08:58:51;1024.4;;;12.6;100
61880;BME280;47817;52.798;27.544;2022-11-03T09:04:37;1024.4;;;12.7;100
61880;BME280;47817;52.798;27.544;2022-11-03T09:09:25;1024.5;;;12.8;100
61880;BME280;47817;52.798;27.544;2022-11-03T09:14:23;1024.5;;;12.8;100
61880;BME280;47817;52.798;27.544;2022-11-03T09:19:11;1024.5;;;12.7;100
61880;BME280;47817;52.798;27.544;2022-11-03T09:23:51;1024.4;;;12.8;100
61880;BME280;47817;52.798;27.544;2022-11-03T09:29:37;1024.5;;;12.7;100
61880;BME280;47817;52.798;27.544;2022-11-03T09:34:37;1024.5;;;12.5;100
61880;BME280;47817;52.798;27.544;2022-11-03T09:39:37;1024.5;;;12.3;100
61880;BME280;47817;52.798;27.544;2022-11-03T09:43:57;1024.5;;;12.2;100
61880;BME280;47817;52.798;27.544;2022-11-03T09:49:01;1024.5;;;12.3;100
61880;BME280;47817;52.798;27.544;2022-11-03T09:54:13;1024.5;;;12.4;100
61880;BME280;47817;52.798;27.544;2022-11-03T09:59:37;1024.5;;;12.5;100
61880;BME280;47817;52.798;27.544;2022-11-03T10:04:01;1024.6;;;12.7;100
61880;BME280;47817;52.798;27.544;2022-11-03T10:09:21;1024.5;;;12.9;100
61880;BME280;47817;52.798;27.544;2022-11-03T10:14:01;1024.5;;;13.3;100
61880;BME280;47817;52.798;27.544;2022-11-03T10:19:35;1024.5;;;13.3;100
61880;BME280;47817;52.798;27.544;2022-11-03T10:24:13;1024.6;;;13.2;98.9
61880;BME280;47817;52.798;27.544;2022-11-03T10:29:23;1024.6;;;13.1;99.4
61880;BME280;47817;52.798;27.544;2022-11-03T10:34:24;1024.5;;;13.2;99
61880;BME280;47817;52.798;27.544;2022-11-03T10:39:21;1024.5;;;13.5;98.1
61880;BME280;47817;52.798;27.544;2022-11-03T10:44:37;1024.5;;;13.5;97.1
61880;BME280;47817;52.798;27.544;2022-11-03T10:49:37;1024.5;;;13.6;98.6
61880;BME280;47817;52.798;27.544;2022-11-03T10:54:39;1024.6;;;13.6;97.3
61880;BME280;47817;52.798;27.544;2022-11-03T10:58:51;1024.6;;;13.8;94.8
61880;BME280;47817;52.798;27.544;2022-11-03T11:04:02;1024.6;;;14;92.8
61880;BME280;47817;52.798;27.544;2022-11-03T11:09:14;1024.5;;;13.8;92.8
61880;BME280;47817;52.798;27.544;2022-11-03T11:14:49;1024.7;;;13.6;90.8
61880;BME280;47817;52.798;27.544;2022-11-03T11:19:01;1024.6;;;13.3;90.6
61880;BME280;47817;52.798;27.544;2022-11-03T11:24:13;1024.6;;;13.1;91.2
61880;BME280;47817;52.798;27.544;2022-11-03T11:34:50;1024.6;;;12.6;91.8
61880;BME280;47817;52.798;27.544;2022-11-03T11:39:03;1024.6;;;12.6;92.2
61880;BME280;47817;52.798;27.544;2022-11-03T11:44:38;1024.6;;;12.7;92.3
61880;BME280;47817;52.798;27.544;2022-11-03T11:49:25;1024.6;;;12.8;91.8
61880;BME280;47817;52.798;27.544;2022-11-03T11:53:51;1024.6;;;12.8;92
61880;BME280;47817;52.798;27.544;2022-11-03T11:59:39;1024.6;;;12.8;91.5
61880;BME280;47817;52.798;27.544;2022-11-03T12:04:37;1024.6;;;12.7;91.2
61880;BME280;47817;52.798;27.544;2022-11-03T12:09:37;1024.6;;;12.6;91.5
61880;BME280;47817;52.798;27.544;2022-11-03T12:14:31;1024.6;;;12.4;91.8
61880;BME280;47817;52.798;27.544;2022-11-03T12:19:34;1024.7;;;12.4;91.6
61880;BME280;47817;52.798;27.544;2022-11-03T12:24:46;1024.6;;;12.4;91.5
61880;BME280;47817;52.798;27.544;2022-11-03T12:29:39;1024.6;;;12.5;91.4
61880;BME280;47817;52.798;27.544;2022-11-03T12:34:01;1024.6;;;12.5;91.6
61880;BME280;47817;52.798;27.544;2022-11-03T12:39:23;1024.7;;;12.5;91.6
61880;BME280;47817;52.798;27.544;2022-11-03T12:44:01;1024.7;;;12.4;91.6
61880;BME280;47817;52.798;27.544;2022-11-03T12:49:37;1024.7;;;12.3;91.7
61880;BME280;47817;52.798;27.544;2022-11-03T12:53:51;1024.8;;;12.2;91.4
61880;BME280;47817;52.798;27.544;2022-11-03T12:59:21;1024.7;;;12.2;91.2
61880;BME280;47817;52.798;27.544;2022-11-03T13:03:59;1024.7;;;12.2;91.3
61880;BME280;47817;52.798;27.544;2022-11-03T13:09:09;1024.7;;;12.1;91.9
61880;BME280;47817;52.798;27.544;2022-11-03T13:14:37;1024.8;;;12;92.4
61880;BME280;47817;52.798;27.544;2022-11-03T13:19:37;1024.7;;;12;92.7
61880;BME280;47817;52.798;27.544;2022-11-03T13:24:37;1024.7;;;12;92.7
61880;BME280;47817;52.798;27.544;2022-11-03T13:29:11;1024.8;;;12;92.5
61880;BME280;47817;52.798;27.544;2022-11-03T13:33:51;1024.8;;;11.9;92.6
61880;BME280;47817;52.798;27.544;2022-11-03T13:39:13;1024.9;;;11.9;92.6
61880;BME280;47817;52.798;27.544;2022-11-03T13:44:13;1024.9;;;11.8;92.5
61880;BME280;47817;52.798;27.544;2022-11-03T13:49:37;1024.9;;;11.8;92.6
61880;BME280;47817;52.798;27.544;2022-11-03T13:54:37;1024.9;;;11.9;93
61880;BME280;47817;52.798;27.544;2022-11-03T13:58:51;1024.9;;;11.9;93.1
61880;BME280;47817;52.798;27.544;2022-11-03T14:04:01;1025;;;11.8;93.4
61880;BME280;47817;52.798;27.544;2022-11-03T14:09:21;1024.9;;;11.8;93.4
61880;BME280;47817;52.798;27.544;2022-11-03T14:14:25;1025;;;11.8;93.6
61880;BME280;47817;52.798;27.544;2022-11-03T14:19:11;1025;;;11.8;93.7
61880;BME280;47817;52.798;27.544;2022-11-03T14:23:51;1025;;;11.8;93.9
61880;BME280;47817;52.798;27.544;2022-11-03T14:28:51;1025;;;11.8;93.7
61880;BME280;47817;52.798;27.544;2022-11-03T14:34:27;1025;;;11.7;93.6
61880;BME280;47817;52.798;27.544;2022-11-03T14:38:51;1025.1;;;11.6;93.9
61880;BME280;47817;52.798;27.544;2022-11-03T14:44:37;1025.1;;;11.6;94.2
61880;BME280;47817;52.798;27.544;2022-11-03T14:49:03;1025;;;11.6;94.3
61880;BME280;47817;52.798;27.544;2022-11-03T14:54:11;1025;;;11.6;94
61880;BME280;47817;52.798;27.544;2022-11-03T14:59:13;1025.1;;;11.5;93.7
61880;BME280;47817;52.798;27.544;2022-11-03T15:04:39;1025.1;;;11.4;93.6
61880;BME280;47817;52.798;27.544;2022-11-03T15:09:39;1025.1;;;11.3;93.7
61880;BME280;47817;52.798;27.544;2022-11-03T15:13:51;1025;;;11.3;94.2
61880;BME280;47817;52.798;27.544;2022-11-03T15:18:51;1025.1;;;11.2;94.7
61880;BME280;47817;52.798;27.544;2022-11-03T15:24:23;1025.1;;;11.2;94.9
61880;BME280;47817;52.798;27.544;2022-11-03T15:29:27;1025.1;;;11.1;94.9
61880;BME280;47817;52.798;27.544;2022-11-03T15:34:09;1025.1;;;11.1;95.2
61880;BME280;47817;52.798;27.544;2022-11-03T15:38:51;1025.1;;;11;95.2
61880;BME280;47817;52.798;27.544;2022-11-03T15:44:01;1025.1;;;11;95.1
61880;BME280;47817;52.798;27.544;2022-11-03T15:49:27;1025.1;;;10.9;95.1
61880;BME280;47817;52.798;27.544;2022-11-03T15:54:25;1025.1;;;11;94.8
61880;BME280;47817;52.798;27.544;2022-11-03T15:59:37;1025.1;;;11;94.8
61880;BME280;47817;52.798;27.544;2022-11-03T16:04:01;1025.2;;;11;94.7
61880;BME280;47817;52.798;27.544;2022-11-03T16:08:51;1025.2;;;11;94.7
61880;BME280;47817;52.798;27.544;2022-11-03T16:14:17;1025.2;;;11;94.6
61880;BME280;47817;52.798;27.544;2022-11-03T16:19:37;1025.2;;;10.9;94.4
61880;BME280;47817;52.798;27.544;2022-11-03T16:24:35;1025.2;;;10.9;94.2
61880;BME280;47817;52.798;27.544;2022-11-03T16:29:01;1025.2;;;10.9;94.1
61880;BME280;47817;52.798;27.544;2022-11-03T16:34:01;1025.2;;;10.9;93.5
61880;BME280;47817;52.798;27.544;2022-11-03T16:39:23;1025.2;;;10.9;93.5
61880;BME280;47817;52.798;27.544;2022-11-03T16:44:23;1025.2;;;10.8;93.3
61880;BME280;47817;52.798;27.544;2022-11-03T16:48:51;1025.3;;;10.8;93.2
61880;BME280;47817;52.798;27.544;2022-11-03T16:54:01;1025.3;;;10.8;92.5
61880;BME280;47817;52.798;27.544;2022-11-03T16:58:51;1025.3;;;10.8;92.5
61880;BME280;47817;52.798;27.544;2022-11-03T17:04:25;1025.3;;;10.8;92.5
61880;BME280;47817;52.798;27.544;2022-11-03T17:09:13;1025.3;;;10.7;92.6
61880;BME280;47817;52.798;27.544;2022-11-03T17:14:35;1025.3;;;10.7;92.3
61880;BME280;47817;52.798;27.544;2022-11-03T17:18:51;1025.3;;;10.6;92
61880;BME280;47817;52.798;27.544;2022-11-03T17:24:11;1025.2;;;10.6;91.8
61880;BME280;47817;52.798;27.544;2022-11-03T17:29:14;1025.3;;;10.5;91.6
61880;BME280;47817;52.798;27.544;2022-11-03T17:34:21;1025.3;;;10.4;91.7
61880;BME280;47817;52.798;27.544;2022-11-03T17:39:33;1025.2;;;10.2;91.9
61880;BME280;47817;52.798;27.544;2022-11-03T17:43:51;1025.2;;;10.1;92.3
61880;BME280;47817;52.798;27.544;2022-11-03T17:49:02;1025.2;;;10;92.5
61880;BME280;47817;52.798;27.544;2022-11-03T17:54:23;1025.2;;;9.8;92.8
61880;BME280;47817;52.798;27.544;2022-11-03T17:59:27;1025.2;;;9.6;93.2
61880;BME280;47817;52.798;27.544;2022-11-03T18:04:10;1025.1;;;9.5;93.6
61880;BME280;47817;52.798;27.544;2022-11-03T18:08:51;1025.2;;;9.4;94.1
61880;BME280;47817;52.798;27.544;2022-11-03T18:13:51;1025.1;;;9.3;94.4
61880;BME280;47817;52.798;27.544;2022-11-03T18:19:25;1025.2;;;9.2;94.7
61880;BME280;47817;52.798;27.544;2022-11-03T18:24:15;1025.2;;;9.2;94.9
61880;BME280;47817;52.798;27.544;2022-11-03T18:29:35;1025.2;;;9.1;95.1
61880;BME280;47817;52.798;27.544;2022-11-03T18:33:51;1025.2;;;9.1;95.1
61880;BME280;47817;52.798;27.544;2022-11-03T18:39:01;1025.2;;;9;95.4
61880;BME280;47817;52.798;27.544;2022-11-03T18:44:17;1025.2;;;8.9;95.6
61880;BME280;47817;52.798;27.544;2022-11-03T18:49:37;1025.2;;;8.9;95.7
61880;BME280;47817;52.798;27.544;2022-11-03T18:54:38;1025.1;;;8.8;95.9
61880;BME280;47817;52.798;27.544;2022-11-03T18:59:01;1025.1;;;8.8;96
61880;BME280;47817;52.798;27.544;2022-11-03T19:03:51;1025.1;;;8.7;96.1
61880;BME280;47817;52.798;27.544;2022-11-03T19:09:22;1025.1;;;8.7;96.2
61880;BME280;47817;52.798;27.544;2022-11-03T19:14:24;1025.1;;;8.6;96.2
61880;BME280;47817;52.798;27.544;2022-11-03T19:19:09;1025.1;;;8.6;96.3
61880;BME280;47817;52.798;27.544;2022-11-03T19:23:51;1025.1;;;8.6;96.3
61880;BME280;47817;52.798;27.544;2022-11-03T19:29:02;1025.1;;;8.6;96.2
61880;BME280;47817;52.798;27.544;2022-11-03T19:34:28;1025.1;;;8.6;96.3
61880;BME280;47817;52.798;27.544;2022-11-03T19:39:01;1025.1;;;8.6;96.1
61880;BME280;47817;52.798;27.544;2022-11-03T19:44:35;1025.2;;;8.5;96.4
61880;BME280;47817;52.798;27.544;2022-11-03T19:48:51;1025.2;;;8.4;96.8
61880;BME280;47817;52.798;27.544;2022-11-03T19:54:01;1025.2;;;8.5;96.6
61880;BME280;47817;52.798;27.544;2022-11-03T19:59:14;1025.2;;;8.6;96.2
61880;BME280;47817;52.798;27.544;2022-11-03T20:04:37;1025.1;;;8.7;95.9
61880;BME280;47817;52.798;27.544;2022-11-03T20:09:37;1025.1;;;8.7;95.7
61880;BME280;47817;52.798;27.544;2022-11-03T20:13:51;1025.2;;;8.8;95.5
61880;BME280;47817;52.798;27.544;2022-11-03T20:19:14;1025.2;;;8.8;95.5
61880;BME280;47817;52.798;27.544;2022-11-03T20:24:21;1025.2;;;8.8;95.4
61880;BME280;47817;52.798;27.544;2022-11-03T20:29:27;1025.2;;;8.8;95.4
61880;BME280;47817;52.798;27.544;2022-11-03T20:34:08;1025.1;;;8.8;95.3
61880;BME280;47817;52.798;27.544;2022-11-03T20:39:13;1025.1;;;8.8;95.3
61880;BME280;47817;52.798;27.544;2022-11-03T20:43:51;1025.1;;;8.7;95.2
61880;BME280;47817;52.798;27.544;2022-11-03T20:49:25;1025;;;8.7;95.4
61880;BME280;47817;52.798;27.544;2022-11-03T20:54:12;1025;;;8.7;95.4
61880;BME280;47817;52.798;27.544;2022-11-03T20:59:35;1025.1;;;8.6;95.4
61880;BME280;47817;52.798;27.544;2022-11-03T21:03:51;1025.1;;;8.6;95.4
61880;BME280;47817;52.798;27.544;2022-11-03T21:09:02;1025;;;8.6;95.3
61880;BME280;47817;52.798;27.544;2022-11-03T21:13:52;1025;;;8.6;95.1
61880;BME280;47817;52.798;27.544;2022-11-03T21:19:35;1025;;;8.6;95.1
61880;BME280;47817;52.798;27.544;2022-11-03T21:24:33;1024.9;;;8.5;95.3
61880;BME280;47817;52.798;27.544;2022-11-03T21:29:09;1024.8;;;8.4;95.5
61880;BME280;47817;52.798;27.544;2022-11-03T21:34:01;1024.8;;;8.3;95.8
61880;BME280;47817;52.798;27.544;2022-11-03T21:39:21;1024.8;;;8.1;96.1
61880;BME280;47817;52.798;27.544;2022-11-03T21:44:27;1024.8;;;8;96
61880;BME280;47817;52.798;27.544;2022-11-03T21:48:51;1024.7;;;7.9;96.4
61880;BME280;47817;52.798;27.544;2022-11-03T21:54:11;1024.7;;;7.8;96.9
61880;BME280;47817;52.798;27.544;2022-11-03T21:58:51;1024.6;;;7.7;97
61880;BME280;47817;52.798;27.544;2022-11-03T22:04:23;1024.6;;;7.6;97.4
61880;BME280;47817;52.798;27.544;2022-11-03T22:09:02;1024.6;;;7.5;97.6
61880;BME280;47817;52.798;27.544;2022-11-03T22:14:33;1024.5;;;7.4;97.9
61880;BME280;47817;52.798;27.544;2022-11-03T22:18:57;1024.5;;;7.3;98.2
61880;BME280;47817;52.798;27.544;2022-11-03T22:23:51;1024.4;;;7.2;98.6
61880;BME280;47817;52.798;27.544;2022-11-03T22:29:09;1024.4;;;7.2;98.9
61880;BME280;47817;52.798;27.544;2022-11-03T22:34:17;1024.4;;;7.2;98.8
61880;BME280;47817;52.798;27.544;2022-11-03T22:39:29;1024.3;;;7.3;98.9
61880;BME280;47817;52.798;27.544;2022-11-03T22:44:33;1024.3;;;7.3;98.7
61880;BME280;47817;52.798;27.544;2022-11-03T22:48:51;1024.3;;;7.3;98.5
61880;BME280;47817;52.798;27.544;2022-11-03T22:54:17;1024.4;;;7.3;98.6
61880;BME280;47817;52.798;27.544;2022-11-03T22:59:23;1024.4;;;7.3;98.1
61880;BME280;47817;52.798;27.544;2022-11-03T23:03:51;1024.4;;;7.3;97.9
61880;BME280;47817;52.798;27.544;2022-11-03T23:09:27;1024.4;;;7.2;97.9
61880;BME280;47817;52.798;27.544;2022-11-03T23:13:52;1024.3;;;7.2;97.7
61880;BME280;47817;52.798;27.544;2022-11-03T23:19:31;1024.4;;;7.2;97.5
61880;BME280;47817;52.798;27.544;2022-11-03T23:24:05;1024.4;;;7.2;97.3
61880;BME280;47817;52.798;27.544;2022-11-03T23:29:31;1024.4;;;7.3;97
61880;BME280;47817;52.798;27.544;2022-11-03T23:34:04;1024.4;;;7.4;96.9
61880;BME280;47817;52.798;27.544;2022-11-03T23:38:58;1024.4;;;7.5;96.7
61880;BME280;47817;52.798;27.544;2022-11-03T23:44:09;1024.4;;;7.6;96.4
61880;BME280;47817;52.798;27.544;2022-11-03T23:49:17;1024.4;;;7.6;96.5
61880;BME280;47817;52.798;27.544;2022-11-03T23:54:31;1024.4;;;7.6;96.7
61880;BME280;47817;52.798;27.544;2022-11-03T23:59:17;1024.4;;;7.6;96.9
